Terminal Aerodrome Forecast
Issued by NWS

Home | Current Version | Previous Version | Text Only | Print | Product List | Glossary On
Versions: 1 2 3 4 5 6 7 8 9 10 11 12 13 14 15 16
000
FTUS46 KPDT 202300
TAFBDN
TAF
KBDN 202322Z 2100/2124 18004KT P6SM OVC100
     FM210300 17005KT P6SM VCSH BKN050 OVC070
     FM210900 18007KT P6SM BKN060
     FM211800 17012KT P6SM -SHRA BKN035 OVC070=

USA.gov is the U.S. government's official web portal to all federal, state and local government web resources and services.